Time;durP1;ratioP1;P1;durP2;ratioP2;P2;SDS_P1;SDS_P2;PMS_P1;PMS_P2;Temp;Humidity;BMP_temperature;BMP_pressure;BME280_temperature;BME280_humidity;BME280_pressure;Samples;Min_cycle;Max_cycle;Signal;HPM_P1;HPM_P2
2022/03/29 00:00:36;;;;;;;15.90;9.70;;;;;;;6.09;89.09;91055.31;4993535;28;20060;-61
2022/03/29 00:03:02;;;;;;;18.40;8.82;;;;;;;6.05;89.14;91046.38;4993760;28;20042;-61
2022/03/29 00:05:28;;;;;;;19.77;8.48;;;;;;;6.06;87.93;91048.72;4993456;28;20050;-61
2022/03/29 00:07:53;;;;;;;13.40;8.63;;;;;;;6.05;87.30;91051.66;4991006;28;20471;-61
2022/03/29 00:10:19;;;;;;;17.00;8.93;;;;;;;5.99;87.54;91054.31;4991482;28;20085;-61
2022/03/29 00:13:21;;;;;;;14.65;7.85;;;;;;;5.87;87.79;91053.09;4993203;28;20500;-60
2022/03/29 00:15:46;;;;;;;16.02;9.02;;;;;;;5.72;89.16;91046.09;4973869;28;20137;-61
2022/03/29 00:18:12;;;;;;;14.15;9.50;;;;;;;5.62;89.68;91043.50;4973680;28;20066;-61
2022/03/29 00:20:38;;;;;;;15.85;9.10;;;;;;;5.63;90.26;91045.88;4973707;28;20041;-62
2022/03/29 00:23:03;;;;;;;15.90;8.80;;;;;;;5.54;90.76;91038.84;4993010;28;20035;-61
2022/03/29 00:25:29;;;;;;;17.55;10.57;;;;;;;5.41;91.96;91032.31;4992878;28;20041;-61
2022/03/29 00:27:55;;;;;;;16.30;9.98;;;;;;;5.35;93.15;91034.19;4992953;28;20054;-61
2022/03/29 00:30:20;;;;;;;18.98;11.25;;;;;;;5.33;94.17;91030.25;4992901;28;20038;-61
2022/03/29 00:32:46;;;;;;;19.75;10.70;;;;;;;5.27;95.33;91036.63;4992826;28;20492;-60
2022/03/29 00:35:12;;;;;;;16.67;10.48;;;;;;;5.30;95.16;91025.53;4992918;28;20520;-61
2022/03/29 00:37:39;;;;;;;14.38;9.02;;;;;;;5.27;95.39;91023.44;4992858;28;20070;-62
2022/03/29 00:40:06;;;;;;;20.05;11.18;;;;;;;5.17;96.32;91023.50;4992832;28;20042;-62
2022/03/29 00:42:31;;;;;;;18.95;12.65;;;;;;;5.08;98.54;91018.03;4990965;28;20039;-62
2022/03/29 00:44:57;;;;;;;19.13;11.73;;;;;;;5.12;98.75;91011.13;4992782;28;20045;-62
2022/03/29 00:47:24;;;;;;;20.98;12.27;;;;;;;5.23;98.74;91025.84;4992544;28;20569;-62
2022/03/29 00:49:49;;;;;;;20.15;12.73;;;;;;;5.21;99.18;91024.53;4992575;28;20497;-62
2022/03/29 00:52:17;;;;;;;19.67;11.68;;;;;;;5.23;99.07;91014.50;4992167;28;20031;-61
2022/03/29 00:54:43;;;;;;;15.98;10.90;;;;;;;5.30;98.60;91009.69;4989379;28;20034;-62
2022/03/29 00:57:09;;;;;;;19.50;10.57;;;;;;;5.21;99.43;91014.00;4991808;28;20412;-62
2022/03/29 00:59:35;;;;;;;16.17;10.80;;;;;;;5.16;99.88;91000.81;4991834;28;20034;-62
2022/03/29 01:02:00;;;;;;;14.30;10.35;;;;;;;5.12;100.00;90997.94;4991973;28;20030;-62
2022/03/29 01:04:29;;;;;;;15.35;9.35;;;;;;;4.96;100.00;90989.34;4991389;28;20030;-63
2022/03/29 01:06:58;;;;;;;15.43;9.20;;;;;;;4.99;100.00;90996.72;4991340;28;20488;-62
2022/03/29 01:09:29;;;;;;;14.45;11.00;;;;;;;5.07;100.00;90990.88;4991157;28;20050;-63
2022/03/29 01:11:57;;;;;;;18.65;12.52;;;;;;;5.05;100.00;90987.72;4991854;28;20035;-62
2022/03/29 01:14:25;;;;;;;21.20;12.85;;;;;;;5.06;100.00;90989.28;4992185;28;20138;-62
2022/03/29 01:19:40;;;;;;;15.20;10.45;;;;;;;5.09;100.00;90978.19;4992181;28;20045;-62
2022/03/29 01:22:09;;;;;;;21.35;11.50;;;;;;;5.05;100.00;90971.13;4992152;28;20054;-62
2022/03/29 01:24:35;;;;;;;16.83;11.43;;;;;;;4.94;100.00;90964.31;4992046;28;20104;-62
2022/03/29 01:27:04;;;;;;;15.70;11.02;;;;;;;4.89;100.00;90964.34;4992002;28;20043;-64
2022/03/29 01:29:31;;;;;;;20.13;12.13;;;;;;;4.89;100.00;90962.53;4992026;28;20053;-63
2022/03/29 01:31:58;;;;;;;18.13;12.20;;;;;;;4.80;100.00;90954.38;4992079;28;20053;-62
2022/03/29 01:34:24;;;;;;;21.67;13.13;;;;;;;4.72;100.00;90947.03;4992011;28;20035;-62
2022/03/29 01:36:49;;;;;;;17.92;13.27;;;;;;;4.71;100.00;90955.22;4991958;28;20030;-61
2022/03/29 01:39:16;;;;;;;18.02;11.20;;;;;;;4.53;100.00;90945.31;4991962;28;20100;-61
2022/03/29 01:41:42;;;;;;;16.38;11.52;;;;;;;4.41;100.00;90925.34;4991908;28;20037;-61
2022/03/29 01:44:09;;;;;;;20.92;11.45;;;;;;;4.51;100.00;90941.09;4991823;28;20046;-61
2022/03/29 01:46:35;;;;;;;15.82;10.77;;;;;;;4.48;100.00;90935.59;4991668;28;20123;-62
2022/03/29 01:49:02;;;;;;;18.35;11.20;;;;;;;4.47;100.00;90926.91;4990866;28;20500;-62
2022/03/29 01:51:28;;;;;;;16.45;10.57;;;;;;;4.48;100.00;90936.38;4984919;28;20432;-62
2022/03/29 01:53:59;;;;;;;18.80;10.75;;;;;;;4.46;100.00;90927.19;4990156;28;20034;-63
2022/03/29 01:56:29;;;;;;;15.02;9.77;;;;;;;4.40;100.00;90923.75;4990669;28;20030;-62
2022/03/29 01:58:56;;;;;;;15.40;9.23;;;;;;;4.35;100.00;90918.53;4991401;28;20062;-62
2022/03/29 02:01:22;;;;;;;15.32;9.65;;;;;;;4.37;100.00;90918.25;4991089;28;20088;-62
2022/03/29 02:03:47;;;;;;;18.67;9.70;;;;;;;4.38;100.00;90910.09;4990908;28;20058;-62
2022/03/29 02:06:13;;;;;;;17.20;9.88;;;;;;;4.32;100.00;90905.13;4990360;28;20038;-62
2022/03/29 02:08:39;;;;;;;14.13;9.95;;;;;;;4.26;100.00;90914.91;4989304;28;20069;-64
2022/03/29 02:11:04;;;;;;;17.17;9.95;;;;;;;4.23;100.00;90902.25;4990718;28;20543;-62
2022/03/29 02:13:30;;;;;;;16.52;10.63;;;;;;;4.22;100.00;90901.47;4991449;28;20057;-62
2022/03/29 02:15:55;;;;;;;18.67;10.57;;;;;;;4.19;100.00;90898.59;4991009;28;20049;-62
2022/03/29 02:18:20;;;;;;;16.20;9.23;;;;;;;4.17;100.00;90895.44;4991554;28;20451;-62
2022/03/29 02:20:47;;;;;;;16.88;10.18;;;;;;;4.15;100.00;90905.47;4991218;28;20022;-61
2022/03/29 02:23:15;;;;;;;18.00;10.95;;;;;;;4.07;100.00;90903.38;4991822;28;20105;-62
2022/03/29 02:25:42;;;;;;;19.00;10.85;;;;;;;4.15;100.00;90905.47;4991496;28;20563;-62
2022/03/29 02:28:07;;;;;;;16.70;10.55;;;;;;;4.07;100.00;90893.63;4991333;28;20042;-63
2022/03/29 02:30:34;;;;;;;16.85;10.48;;;;;;;4.08;100.00;90894.41;4991305;28;20434;-61
2022/03/29 02:32:59;;;;;;;12.85;9.27;;;;;;;4.00;100.00;90889.72;4991488;28;20091;-62
2022/03/29 02:35:25;;;;;;;17.48;9.35;;;;;;;4.02;100.00;90891.03;4988490;28;20471;-68
2022/03/29 02:37:50;;;;;;;16.25;10.73;;;;;;;3.94;100.00;90888.16;4984522;28;20030;-63
2022/03/29 02:40:16;;;;;;;19.50;11.27;;;;;;;3.84;100.00;90879.25;4990204;28;20404;-62
2022/03/29 02:42:47;;;;;;;13.18;8.15;;;;;;;3.82;100.00;90881.38;4990049;28;20022;-62
2022/03/29 02:45:18;;;;;;;12.70;8.90;;;;;;;3.80;100.00;90888.75;4987239;28;20041;-62
2022/03/29 02:47:45;;;;;;;13.57;7.93;;;;;;;3.79;100.00;90881.13;4989876;28;20489;-62
2022/03/29 02:50:12;;;;;;;13.77;8.70;;;;;;;3.76;100.00;90886.91;4989856;28;20500;-62
2022/03/29 02:52:45;;;;;;;20.33;11.02;;;;;;;3.80;100.00;90875.59;4989769;28;20030;-62
2022/03/29 02:55:11;;;;;;;17.40;10.90;;;;;;;3.73;100.00;90872.44;4990113;28;20026;-62
2022/03/29 02:57:37;;;;;;;17.25;8.57;;;;;;;3.68;100.00;90869.06;4991233;28;20447;-62
2022/03/29 03:00:05;;;;;;;13.05;8.07;;;;;;;3.68;100.00;90883.00;4993334;28;20092;-62
2022/03/29 03:02:32;;;;;;;14.35;8.43;;;;;;;3.76;100.00;90877.16;4993181;28;20026;-62
2022/03/29 03:04:59;;;;;;;17.10;8.95;;;;;;;3.68;100.00;90872.47;4993291;28;20500;-63
2022/03/29 03:07:24;;;;;;;17.25;8.40;;;;;;;3.73;100.00;90882.97;4993246;28;20080;-63
2022/03/29 03:09:50;;;;;;;14.73;8.55;;;;;;;3.73;100.00;90877.72;4992865;28;20569;-62
2022/03/29 03:12:15;;;;;;;13.40;7.95;;;;;;;3.80;100.00;90872.97;4993129;28;20026;-63
2022/03/29 03:14:41;;;;;;;14.63;9.63;;;;;;;3.80;100.00;90878.22;4993212;28;20025;-63
2022/03/29 03:17:06;;;;;;;17.75;9.20;;;;;;;3.81;100.00;90882.44;4993156;28;20417;-62
2022/03/29 03:19:32;;;;;;;14.55;9.00;;;;;;;3.77;100.00;90872.69;4993164;28;20089;-62
2022/03/29 03:21:57;;;;;;;13.13;9.82;;;;;;;3.79;100.00;90876.66;4993813;28;20030;-61
2022/03/29 03:24:22;;;;;;;15.15;9.15;;;;;;;3.75;100.00;90872.97;4994227;28;20034;-62
2022/03/29 03:26:48;;;;;;;14.50;9.38;;;;;;;3.71;100.00;90869.31;4994143;28;20026;-61
2022/03/29 03:29:13;;;;;;;14.07;10.00;;;;;;;3.66;100.00;90871.97;4994101;28;20476;-61
2022/03/29 03:31:39;;;;;;;20.15;10.68;;;;;;;3.65;100.00;90873.03;4994138;28;20034;-62
2022/03/29 03:34:04;;;;;;;16.00;8.93;;;;;;;3.60;100.00;90879.06;4994056;28;20042;-61
2022/03/29 03:36:29;;;;;;;15.15;8.68;;;;;;;3.70;100.00;90875.63;4993101;28;20030;-62
2022/03/29 03:38:55;;;;;;;13.60;9.27;;;;;;;3.73;100.00;90877.72;4992598;28;20026;-62
2022/03/29 03:41:20;;;;;;;17.35;9.35;;;;;;;3.71;100.00;90869.31;4992488;28;20025;-61
2022/03/29 03:43:46;;;;;;;22.38;10.88;;;;;;;3.69;100.00;90871.41;4992498;28;20459;-62
2022/03/29 03:46:11;;;;;;;24.10;11.90;;;;;;;3.68;100.00;90875.09;4992300;28;20105;-62
2022/03/29 03:48:37;;;;;;;21.10;11.35;;;;;;;3.72;100.00;90875.34;4992059;28;20053;-62
2022/03/29 03:51:02;;;;;;;23.50;11.25;;;;;;;3.72;100.00;90875.34;4992017;28;20400;-62
2022/03/29 03:53:29;;;;;;;26.40;16.42;;;;;;;3.71;100.00;90871.16;4992209;28;20018;-62
2022/03/29 03:55:54;;;;;;;15.13;10.00;;;;;;;3.59;100.00;90874.84;4992029;28;20042;-63
2022/03/29 03:58:19;;;;;;;22.48;12.30;;;;;;;3.53;100.00;90865.41;4992053;28;20030;-62
2022/03/29 04:00:45;;;;;;;23.17;12.13;;;;;;;3.43;100.00;90875.16;4991956;28;20460;-62
2022/03/29 04:03:10;;;;;;;19.52;10.48;;;;;;;3.45;100.00;90871.22;4991913;28;20032;-62
2022/03/29 04:05:36;;;;;;;15.98;9.50;;;;;;;3.50;100.00;90870.44;4991961;28;20124;-62
2022/03/29 04:08:02;;;;;;;20.77;10.48;;;;;;;3.53;100.00;90868.03;4988660;28;20046;-62
2022/03/29 04:10:27;;;;;;;17.80;11.55;;;;;;;3.54;100.00;90863.56;4991498;28;20050;-62
2022/03/29 04:12:53;;;;;;;24.58;11.68;;;;;;;3.47;100.00;90868.31;4991809;28;20512;-62
2022/03/29 04:15:18;;;;;;;22.40;11.13;;;;;;;3.49;100.00;90871.47;4991578;28;20097;-62
2022/03/29 04:17:44;;;;;;;18.48;10.82;;;;;;;3.49;100.00;90867.00;4990288;28;20026;-63
2022/03/29 04:20:10;;;;;;;26.00;11.30;;;;;;;3.45;100.00;90868.56;4991742;28;20706;-62
2022/03/29 04:22:35;;;;;;;25.40;11.27;;;;;;;3.40;100.00;90857.28;4991638;28;20022;-62
2022/03/29 04:25:01;;;;;;;23.70;10.82;;;;;;;3.50;100.00;90865.97;4991547;28;20093;-62
2022/03/29 04:27:26;;;;;;;26.02;11.80;;;;;;;3.57;100.00;90869.06;4991454;28;20046;-62
2022/03/29 04:29:51;;;;;;;26.83;11.27;;;;;;;3.61;100.00;90858.81;4991391;28;20105;-62
2022/03/29 04:32:17;;;;;;;34.70;12.80;;;;;;;3.64;100.00;90862.78;4991312;28;20021;-63
2022/03/29 04:34:44;;;;;;;28.38;13.02;;;;;;;3.66;100.00;90871.19;4991427;28;20495;-62
2022/03/29 04:37:10;;;;;;;24.75;13.88;;;;;;;3.71;100.00;90869.31;4991556;28;20461;-62
2022/03/29 04:39:38;;;;;;;23.88;12.93;;;;;;;3.78;100.00;90864.53;4991332;28;20037;-63
2022/03/29 04:42:04;;;;;;;24.08;12.45;;;;;;;3.61;100.00;90867.47;4991355;28;20030;-63
2022/03/29 04:44:30;;;;;;;25.90;10.27;;;;;;;3.71;100.00;90869.31;4991141;28;20073;-62
2022/03/29 04:46:55;;;;;;;18.67;10.20;;;;;;;3.75;100.00;90867.69;4991066;28;20038;-62
2022/03/29 04:49:21;;;;;;;20.02;11.68;;;;;;;3.79;100.00;90860.88;4990895;28;20137;-61
2022/03/29 04:51:46;;;;;;;24.83;11.88;;;;;;;3.91;100.00;90863.97;4991054;28;20488;-62
2022/03/29 04:54:11;;;;;;;17.85;10.40;;;;;;;4.09;100.00;90862.56;4990910;28;20014;-62
2022/03/29 04:56:37;;;;;;;20.20;9.95;;;;;;;4.14;100.00;90874.94;4990641;28;20539;-61
2022/03/29 04:59:03;;;;;;;17.13;10.70;;;;;;;4.27;100.00;90865.66;4991192;28;20411;-61
2022/03/29 05:01:28;;;;;;;19.70;11.70;;;;;;;4.50;100.00;90865.78;4990844;28;20106;-61
2022/03/29 05:03:54;;;;;;;20.50;8.93;;;;;;;4.66;100.00;90863.03;4990854;28;20034;-61
2022/03/29 05:06:19;;;;;;;25.42;9.10;;;;;;;4.68;100.00;90858.28;4991273;28;20069;-60
2022/03/29 05:08:45;;;;;;;27.27;11.77;;;;;;;4.87;99.89;90853.91;4992015;28;20128;-60
2022/03/29 05:11:10;;;;;;;60.83;12.40;;;;;;;5.21;97.82;90861.03;4992129;28;20109;-61
2022/03/29 05:13:35;;;;;;;32.40;12.13;;;;;;;5.43;95.57;90861.34;4992133;28;20492;-60
2022/03/29 05:16:01;;;;;;;24.70;11.45;;;;;;;5.67;93.29;90864.00;4991629;28;20096;-61
2022/03/29 05:18:27;;;;;;;23.95;11.50;;;;;;;6.00;89.38;90857.09;4992047;28;20030;-61
2022/03/29 05:20:52;;;;;;;33.85;12.98;;;;;;;6.59;85.80;90850.50;4991274;28;20105;-61
2022/03/29 05:23:19;;;;;;;24.63;10.60;;;;;;;6.88;80.70;90850.34;4991996;28;20500;-61
2022/03/29 05:25:45;;;;;;;18.15;9.43;;;;;;;7.20;79.01;90849.59;4992118;28;20126;-61
2022/03/29 05:28:11;;;;;;;26.02;10.80;;;;;;;7.71;75.46;90836.25;4992049;28;20072;-62
2022/03/29 05:30:36;;;;;;;30.77;10.48;;;;;;;8.70;71.69;90843.59;4991756;28;20023;-61
2022/03/29 05:33:03;;;;;;;26.67;9.82;;;;;;;8.90;69.00;90836.25;4992100;28;20041;-60
2022/03/29 05:35:30;;;;;;;21.38;9.48;;;;;;;9.31;67.49;90836.09;4992230;28;20033;-61
2022/03/29 05:37:58;;;;;;;21.92;10.13;;;;;;;9.88;65.05;90834.34;4991647;28;20035;-61
2022/03/29 05:40:25;;;;;;;27.17;9.02;;;;;;;9.71;64.70;90839.59;4991692;28;20400;-61
2022/03/29 05:42:51;;;;;;;18.65;10.63;;;;;;;10.44;62.89;90846.16;4991751;28;20038;-61
2022/03/29 05:45:17;;;;;;;14.25;9.20;;;;;;;11.41;59.50;90832.63;4991739;28;20117;-62
2022/03/29 05:50:27;;;;;;;;;;;;;;;12.78;54.76;90840.44;4992098;28;20507;-63
2022/03/29 05:52:53;;;;;;;28.42;11.45;;;;;;;12.44;54.78;90836.09;4991431;28;19921;-63
2022/03/29 05:55:20;;;;;;;29.23;11.82;;;;;;;13.23;53.32;90834.53;4991590;28;20030;-62
2022/03/29 05:57:49;;;;;;;61.30;28.48;;;;;;;13.98;52.07;90835.25;4991350;28;20026;-62
2022/03/29 06:00:16;;;;;;;32.45;13.43;;;;;;;15.14;48.52;90840.09;4991196;28;20034;-61
2022/03/29 06:02:42;;;;;;;39.42;12.80;;;;;;;15.60;47.16;90839.91;4983614;28;20073;-63
2022/03/29 06:05:09;;;;;;;127.45;57.65;;;;;;;15.84;46.59;90832.56;4971830;28;20130;-62
2022/03/29 06:07:34;;;;;;;31.08;9.75;;;;;;;16.80;44.55;90834.22;4971705;28;20038;-61
2022/03/29 06:10:00;;;;;;;32.47;9.73;;;;;;;16.58;43.89;90832.91;4971664;28;20050;-65
2022/03/29 06:12:25;;;;;;;29.60;10.68;;;;;;;17.76;43.28;90830.19;4971776;28;20026;-62
2022/03/29 06:14:51;;;;;;;40.90;10.73;;;;;;;18.65;41.34;90834.53;4971835;28;20031;-62
2022/03/29 06:17:17;;;;;;;40.70;11.93;;;;;;;19.93;39.40;90823.69;4971364;28;20077;-64
2022/03/29 06:19:43;;;;;;;45.47;12.10;;;;;;;20.97;37.74;90833.59;4971827;28;20110;-63
2022/03/29 06:22:09;;;;;;;25.30;12.43;;;;;;;21.21;37.17;90833.03;4971853;28;20031;-62
2022/03/29 06:24:35;;;;;;;28.27;13.45;;;;;;;20.93;37.97;90835.50;4971736;28;20030;-64
2022/03/29 06:27:01;;;;;;;38.22;14.30;;;;;;;21.99;36.81;90831.97;4971585;28;20031;-63
2022/03/29 06:29:27;;;;;;;106.20;58.72;;;;;;;22.51;36.47;90833.34;4971678;28;20022;-60
2022/03/29 06:31:53;;;;;;;45.13;19.63;;;;;;;21.90;37.64;90828.81;4973179;28;20142;-62
2022/03/29 06:34:19;;;;;;;27.35;12.48;;;;;;;21.46;38.08;90827.84;4975454;28;20038;-61
2022/03/29 06:36:45;;;;;;;19.80;10.25;;;;;;;21.04;38.39;90825.56;4975357;28;20394;-62
2022/03/29 06:39:12;;;;;;;13.63;10.25;;;;;;;22.09;37.36;90820.41;4975623;28;20149;-62
2022/03/29 06:41:39;;;;;;;18.20;9.95;;;;;;;20.85;38.47;90823.88;4982887;28;20034;-62
2022/03/29 06:44:08;;;;;;;15.57;9.43;;;;;;;20.45;38.80;90811.13;4994344;28;20065;-64
2022/03/29 06:46:35;;;;;;;25.30;12.43;;;;;;;18.52;42.47;90818.50;4993943;28;20031;-63
2022/03/29 06:49:02;;;;;;;48.00;22.13;;;;;;;20.43;39.08;90815.38;4994604;28;20058;-62
2022/03/29 06:51:30;;;;;;;20.38;12.13;;;;;;;19.91;39.65;90809.78;4994476;28;20034;-62
2022/03/29 06:53:56;;;;;;;17.98;8.13;;;;;;;21.78;36.83;90813.69;4994650;28;20389;-61
2022/03/29 06:56:22;;;;;;;22.52;9.90;;;;;;;21.26;37.62;90810.28;4994366;28;20029;-61
2022/03/29 06:58:47;;;;;;;33.40;11.27;;;;;;;19.61;39.80;90820.59;4994249;28;20039;-60
2022/03/29 07:01:13;;;;;;;23.00;11.40;;;;;;;18.99;40.99;90819.28;4993827;28;20507;-61
2022/03/29 07:03:39;;;;;;;69.68;39.08;;;;;;;20.22;39.36;90803.19;4994184;28;20030;-62
2022/03/29 07:06:04;;;;;;;29.05;12.60;;;;;;;20.38;38.94;90815.69;4994284;28;20030;-61
2022/03/29 07:08:30;;;;;;;34.92;9.43;;;;;;;20.48;38.33;90815.78;4994048;28;20459;-60
2022/03/29 07:13:41;;;;;;;33.35;9.88;;;;;;;19.53;40.02;90820.81;4994091;28;20096;-62
2022/03/29 07:16:09;;;;;;;16.20;7.78;;;;;;;18.19;42.46;90811.00;4993684;28;20037;-62
2022/03/29 07:18:35;;;;;;;56.58;10.60;;;;;;;17.96;42.01;90807.50;4994187;28;20057;-63
2022/03/29 07:21:00;;;;;;;21.55;7.95;;;;;;;20.21;38.77;90807.03;4994180;28;20539;-61
2022/03/29 07:23:27;;;;;;;34.92;9.20;;;;;;;19.47;40.18;90803.41;4993980;28;20030;-61
2022/03/29 07:25:53;;;;;;;44.78;8.32;;;;;;;19.25;39.39;90803.13;4993656;28;20516;-61
2022/03/29 07:28:20;;;;;;;35.05;9.52;;;;;;;19.97;38.39;90796.72;4993794;28;20596;-61
2022/03/29 07:30:46;;;;;;;21.85;7.18;;;;;;;19.02;39.82;90802.38;4993773;28;20141;-63
2022/03/29 07:33:11;;;;;;;61.58;11.13;;;;;;;18.42;40.13;90797.56;4993614;28;20129;-62
2022/03/29 07:35:37;;;;;;;20.27;6.93;;;;;;;18.89;39.70;90807.19;4993671;28;20031;-62
2022/03/29 07:38:07;;;;;;;28.05;7.60;;;;;;;18.82;39.74;90797.09;4993621;28;20030;-61
2022/03/29 07:40:34;;;;;;;22.65;8.80;;;;;;;18.51;40.69;90795.41;4993664;28;20058;-61
2022/03/29 07:42:59;;;;;;;14.50;7.18;;;;;;;18.97;40.39;90800.00;4991593;28;20088;-62
2022/03/29 07:45:25;;;;;;;20.38;7.50;;;;;;;19.37;39.92;90791.31;4992139;28;20496;-63
2022/03/29 07:47:55;;;;;;;29.80;7.85;;;;;;;19.60;39.24;90796.66;4992134;28;20121;-60
2022/03/29 07:50:21;;;;;;;27.67;7.65;;;;;;;20.97;37.10;90790.34;4993008;28;20046;-61
2022/03/29 07:52:47;;;;;;;38.33;8.02;;;;;;;19.15;39.73;90796.44;4993417;28;20081;-62
2022/03/29 07:55:13;;;;;;;17.52;6.53;;;;;;;20.49;38.28;90794.94;4993422;28;20030;-61
2022/03/29 07:57:39;;;;;;;43.05;9.55;;;;;;;19.49;39.95;90787.63;4993019;28;20027;-61
2022/03/29 08:02:52;;;;;;;23.60;7.43;;;;;;;19.88;39.21;90778.13;4992357;28;20041;-63
2022/03/29 08:05:18;;;;;;;19.98;7.90;;;;;;;19.57;39.85;90781.22;4992465;28;20492;-63
2022/03/29 08:07:44;;;;;;;24.35;8.40;;;;;;;19.31;40.40;90790.88;4993096;28;20420;-63
2022/03/29 08:10:10;;;;;;;26.60;9.15;;;;;;;20.14;40.23;90784.56;4992765;28;20047;-63
2022/03/29 08:12:35;;;;;;;38.67;11.27;;;;;;;20.09;39.73;90782.19;4993228;28;20034;-64
2022/03/29 08:15:01;;;;;;;56.42;11.20;;;;;;;19.44;41.21;90781.41;4993153;28;20118;-63
2022/03/29 08:17:26;;;;;;;24.83;9.63;;;;;;;20.11;40.25;90769.88;4992537;28;20030;-64
2022/03/29 08:19:52;;;;;;;27.38;8.65;;;;;;;18.46;42.22;90784.13;4993035;28;20417;-62
2022/03/29 08:22:18;;;;;;;30.15;10.48;;;;;;;18.25;43.21;90782.66;4992897;28;20026;-63
2022/03/29 08:24:43;;;;;;;51.80;25.98;;;;;;;20.20;40.88;90766.88;4992950;28;20031;-62
2022/03/29 08:27:09;;;;;;;27.83;10.30;;;;;;;21.82;38.01;90768.44;4991496;28;20512;-63
2022/03/29 08:29:54;;;;;;;71.43;11.65;;;;;;;20.38;39.76;90773.22;4992631;28;20030;-63
2022/03/29 08:32:20;;;;;;;20.42;10.13;;;;;;;20.98;39.80;90767.56;4992336;28;20096;-63
2022/03/29 08:34:46;;;;;;;47.83;11.10;;;;;;;20.84;39.36;90762.84;4992466;28;20034;-62
2022/03/29 08:37:11;;;;;;;42.50;11.35;;;;;;;20.91;39.63;90751.28;4992427;28;20121;-61
2022/03/29 08:39:37;;;;;;;27.17;10.15;;;;;;;21.57;38.14;90752.09;4992426;28;20031;-62
2022/03/29 08:42:07;;;;;;;22.33;9.70;;;;;;;21.43;38.67;90750.09;4989727;28;20467;-63
2022/03/29 08:44:33;;;;;;;24.58;9.68;;;;;;;20.28;40.23;90746.88;4992356;28;20019;-62
2022/03/29 08:47:00;;;;;;;22.10;8.95;;;;;;;20.03;41.03;90746.63;4991883;28;20480;-61
2022/03/29 08:49:27;;;;;;;20.33;9.15;;;;;;;21.01;39.07;90737.06;4991733;28;20404;-62
2022/03/29 08:51:53;;;;;;;23.13;8.43;;;;;;;21.43;37.76;90743.88;4992247;28;20041;-62
2022/03/29 08:54:21;;;;;;;76.97;22.05;;;;;;;21.70;37.89;90736.28;4991901;28;20085;-62
2022/03/29 08:56:47;;;;;;;56.60;10.48;;;;;;;21.32;38.11;90733.03;4991379;28;20057;-62
2022/03/29 08:59:12;;;;;;;37.17;9.45;;;;;;;21.56;37.89;90731.59;4992203;28;20070;-62
2022/03/29 09:01:38;;;;;;;38.22;15.45;;;;;;;21.60;38.09;90728.88;4991818;28;20551;-64
2022/03/29 09:04:06;;;;;;;19.83;8.95;;;;;;;22.13;37.40;90737.22;4990715;28;20030;-62
2022/03/29 09:06:32;;;;;;;34.53;8.75;;;;;;;21.78;36.81;90732.47;4990558;28;20546;-62
2022/03/29 09:08:58;;;;;;;23.38;9.27;;;;;;;21.58;37.47;90731.97;4991824;28;20046;-63
2022/03/29 09:11:23;;;;;;;52.15;9.85;;;;;;;22.78;35.63;90724.53;4991776;28;20053;-63
2022/03/29 09:14:03;;;;;;;20.52;8.27;;;;;;;21.45;36.93;90715.28;4991977;28;20056;-63
2022/03/29 09:16:36;;;;;;;27.23;7.63;;;;;;;20.83;37.90;90722.66;4991031;28;20107;-62
2022/03/29 09:19:02;;;;;;;24.75;7.47;;;;;;;22.18;36.35;90722.53;4990423;28;20401;-63
2022/03/29 09:21:28;;;;;;;32.80;7.85;;;;;;;23.23;34.80;90712.09;4991889;28;20034;-63
2022/03/29 09:24:08;;;;;;;20.27;6.97;;;;;;;22.17;35.50;90705.50;4990539;28;20480;-61
2022/03/29 09:26:37;;;;;;;22.25;6.82;;;;;;;22.40;35.55;90715.97;4991655;28;20085;-62
2022/03/29 09:29:10;;;;;;;25.77;7.70;;;;;;;21.12;35.72;90694.63;4991763;28;20060;-62
2022/03/29 09:31:36;;;;;;;;;;;;;;;19.08;39.56;90698.47;4991439;28;20072;-64
2022/03/29 09:34:34;;;;;;;17.30;6.90;;;;;;;18.35;41.14;90699.72;4991571;28;19922;-65
2022/03/29 09:37:01;;;;;;;28.45;7.97;;;;;;;19.51;39.11;90688.97;4948701;28;20068;-63
2022/03/29 09:39:42;;;;;;;26.90;6.63;;;;;;;19.37;39.02;90680.72;4991771;28;20055;-62
2022/03/29 09:42:09;;;;;;;17.63;6.40;;;;;;;21.29;36.79;90682.34;4971701;28;20050;-62
2022/03/29 09:44:41;;;;;;;27.45;7.68;;;;;;;22.07;36.08;90681.84;4972095;28;20030;-63
2022/03/29 09:47:09;;;;;;;19.27;5.90;;;;;;;22.68;33.86;90679.97;4972097;28;20027;-62
2022/03/29 09:49:59;;;;;;;24.90;6.70;;;;;;;20.72;35.48;90679.31;4971592;28;20290;-64
2022/03/29 09:52:38;;;;;;;19.23;6.07;;;;;;;18.76;38.15;90682.63;4972088;28;20026;-63
2022/03/29 09:55:06;;;;;;;141.52;14.55;;;;;;;18.06;39.43;90685.00;4972039;28;20130;-63
2022/03/29 09:57:41;;;;;;;23.27;7.05;;;;;;;17.49;40.37;90675.91;4971989;28;20038;-63
2022/03/29 10:00:09;;;;;;;36.70;13.15;;;;;;;16.82;41.33;90678.03;4972069;28;20085;-63
2022/03/29 10:02:40;;;;;;;33.88;7.50;;;;;;;16.03;42.64;90667.44;4971526;28;20424;-63
2022/03/29 10:05:07;;;;;;;27.00;9.38;;;;;;;16.47;42.61;90676.13;4971917;28;20134;-63
2022/03/29 10:07:40;;;;;;;37.83;8.27;;;;;;;16.31;41.97;90672.69;4975011;28;20496;-63
2022/03/29 10:10:07;;;;;;;24.15;5.85;;;;;;;17.15;40.38;90666.81;4975732;28;20046;-63
2022/03/29 10:12:34;;;;;;;24.70;7.25;;;;;;;19.09;38.23;90662.25;4975801;28;20114;-62
2022/03/29 10:15:00;;;;;;;22.85;6.32;;;;;;;17.74;40.03;90658.34;4975673;28;20058;-63
2022/03/29 10:17:26;;;;;;;211.23;22.58;;;;;;;17.31;40.87;90654.06;4975225;28;20037;-62
2022/03/29 10:19:53;;;;;;;22.98;5.97;;;;;;;18.14;39.51;90648.97;4975591;28;20532;-62
2022/03/29 10:22:18;;;;;;;26.25;6.15;;;;;;;17.25;40.77;90647.44;4975528;28;20041;-61
2022/03/29 10:24:44;;;;;;;29.70;7.05;;;;;;;16.32;42.37;90653.56;4974695;28;20027;-61
2022/03/29 10:27:10;;;;;;;40.00;6.57;;;;;;;16.43;42.52;90646.53;4975010;28;20230;-62
2022/03/29 10:29:35;;;;;;;31.63;6.95;;;;;;;16.01;42.84;90640.97;4975371;28;20030;-62
2022/03/29 10:32:07;;;;;;;31.05;7.22;;;;;;;16.23;42.46;90639.53;4975591;28;20110;-62
2022/03/29 10:34:39;;;;;;;72.45;9.05;;;;;;;19.37;38.58;90632.94;4975118;28;20540;-63
2022/03/29 10:37:07;;;;;;;28.40;6.43;;;;;;;17.43;40.23;90643.16;4975060;28;20101;-62
2022/03/29 10:39:52;;;;;;;26.75;6.90;;;;;;;18.64;39.31;90637.06;4975068;28;20039;-63
2022/03/29 10:42:37;;;;;;;103.40;11.25;;;;;;;20.82;36.37;90623.75;4975318;28;20452;-63
2022/03/29 10:45:22;;;;;;;184.27;13.55;;;;;;;21.41;34.94;90632.53;4975137;28;20097;-63
2022/03/29 10:48:05;;;;;;;20.77;5.93;;;;;;;21.95;34.01;90633.47;4974927;28;20031;-63
2022/03/29 10:50:57;;;;;;;26.58;6.68;;;;;;;22.37;33.89;90624.59;4975352;28;20120;-62
2022/03/29 10:53:45;;;;;;;27.13;6.10;;;;;;;22.22;33.42;90626.53;4975160;28;20166;-62
2022/03/29 10:56:14;;;;;;;30.02;6.80;;;;;;;21.03;35.08;90628.50;4975304;28;20066;-63
2022/03/29 10:59:09;;;;;;;22.00;5.72;;;;;;;22.79;34.25;90623.78;4974814;28;20030;-62
2022/03/29 11:01:37;;;;;;;25.77;6.03;;;;;;;23.56;31.88;90622.00;4974132;28;20039;-63
2022/03/29 11:04:10;;;;;;;18.00;5.47;;;;;;;24.72;31.78;90618.91;4974917;28;20043;-62
2022/03/29 11:06:36;;;;;;;38.15;6.20;;;;;;;23.68;31.75;90615.38;4974735;28;20038;-62
2022/03/29 11:09:06;;;;;;;21.25;6.43;;;;;;;23.92;31.42;90610.19;4974630;28;20047;-62
2022/03/29 11:11:40;;;;;;;16.52;5.47;;;;;;;24.01;31.61;90605.88;4974765;28;20042;-62
2022/03/29 11:14:33;;;;;;;261.92;24.92;;;;;;;23.19;33.29;90600.03;4974853;28;20031;-62
2022/03/29 11:17:11;;;;;;;23.15;6.80;;;;;;;23.85;32.43;90598.22;4974136;28;20030;-62
2022/03/29 11:19:46;;;;;;;27.52;7.35;;;;;;;21.36;34.13;90601.22;4974173;28;20086;-62
2022/03/29 11:22:31;;;;;;;21.60;6.03;;;;;;;20.49;35.09;90590.34;4974748;28;20026;-62
2022/03/29 11:25:03;;;;;;;17.70;6.53;;;;;;;19.00;36.93;90589.00;4974635;28;20481;-61
2022/03/29 11:27:33;;;;;;;35.95;7.30;;;;;;;19.19;37.52;90577.25;4974551;28;20105;-62
2022/03/29 11:30:00;;;;;;;22.77;7.07;;;;;;;18.42;38.18;90581.31;4974329;28;20035;-61
2022/03/29 11:32:25;;;;;;;23.52;6.05;;;;;;;18.61;37.97;90570.38;4973968;28;20039;-61
2022/03/29 11:34:56;;;;;;;20.77;7.38;;;;;;;18.77;38.42;90581.78;4974408;28;20031;-61